createdAt,value
2022-10-21T00:00:34.431Z,4.68
2022-10-21T00:01:57.170Z,4.67
2022-10-21T00:02:59.995Z,4.67
2022-10-21T00:04:03.949Z,4.66
2022-10-21T00:05:07.186Z,4.65
2022-10-21T00:06:10.397Z,4.63
2022-10-21T00:07:13.256Z,4.63
2022-10-21T00:08:16.537Z,4.63
2022-10-21T00:09:19.459Z,4.62
2022-10-21T00:10:22.517Z,4.61
2022-10-21T00:11:25.332Z,4.60
2022-10-21T00:12:28.905Z,4.60
2022-10-21T00:13:32.985Z,4.60
2022-10-21T00:14:35.786Z,4.59
2022-10-21T00:15:38.661Z,4.58
2022-10-21T00:16:41.747Z,4.57
2022-10-21T00:17:44.594Z,4.56
2022-10-21T00:18:48.070Z,4.56
2022-10-21T00:19:51.367Z,4.55
2022-10-21T00:20:54.301Z,4.54
2022-10-21T00:21:57.124Z,4.53
2022-10-21T00:22:59.981Z,4.52
2022-10-21T00:24:02.885Z,4.51
2022-10-21T00:25:05.917Z,4.51
2022-10-21T00:26:09.290Z,4.51
2022-10-21T00:27:12.118Z,4.49
2022-10-21T00:28:14.999Z,4.48
2022-10-21T00:29:17.882Z,4.47
2022-10-21T00:30:20.708Z,4.46
2022-10-21T00:31:24.644Z,4.45
2022-10-21T00:32:27.455Z,4.44
2022-10-21T00:33:30.445Z,4.43
2022-10-21T00:34:33.400Z,4.42
2022-10-21T00:35:36.283Z,4.40
2022-10-21T00:36:39.315Z,4.39
2022-10-21T00:37:42.238Z,4.38
2022-10-21T00:38:47.072Z,4.37
2022-10-21T00:39:51.092Z,4.36
2022-10-21T00:40:54.031Z,4.35
2022-10-21T00:41:57.151Z,4.34
2022-10-21T00:43:00.348Z,4.33
2022-10-21T00:44:05.060Z,4.33
2022-10-21T00:45:07.864Z,4.31
2022-10-21T00:46:11.140Z,4.31
2022-10-21T00:47:17.685Z,4.30
2022-10-21T00:48:31.822Z,4.30
2022-10-21T00:49:40.267Z,4.29
2022-10-21T00:50:45.991Z,4.28
2022-10-21T00:51:52.837Z,4.28
2022-10-21T00:52:57.195Z,4.27
2022-10-21T00:54:00.951Z,4.27
2022-10-21T00:55:05.064Z,4.26
2022-10-21T00:56:15.399Z,4.26
2022-10-21T00:57:21.124Z,4.25
2022-10-21T00:58:25.960Z,4.23
2022-10-21T00:59:31.433Z,4.23
2022-10-21T01:00:34.294Z,4.21
2022-10-21T01:01:37.151Z,4.21
2022-10-21T01:02:40.088Z,4.20
2022-10-21T01:03:43.131Z,4.20
2022-10-21T01:04:46.873Z,4.18
2022-10-21T01:06:59.486Z,4.16
2022-10-21T01:08:02.454Z,4.14
2022-10-21T01:09:05.672Z,4.13
2022-10-21T01:10:09.025Z,4.12
2022-10-21T01:11:13.550Z,4.09
2022-10-21T01:12:33.857Z,4.08
2022-10-21T01:13:36.674Z,4.05
2022-10-21T01:15:18.154Z,4.04
2022-10-21T01:16:30.419Z,4.03
2022-10-21T01:17:45.141Z,4.03
2022-10-21T01:18:59.071Z,4.02
2022-10-21T01:20:02.035Z,4.01
2022-10-21T01:21:04.909Z,4.00
2022-10-21T01:22:29.191Z,3.98
2022-10-21T01:23:50.886Z,3.97
2022-10-21T01:24:56.877Z,3.95
2022-10-21T01:26:05.700Z,3.94
2022-10-21T01:27:27.538Z,3.92
2022-10-21T01:28:48.873Z,3.90
2022-10-21T01:30:24.472Z,3.89
2022-10-21T01:31:33.311Z,3.87
2022-10-21T01:32:38.883Z,3.86
2022-10-21T01:33:43.246Z,3.86
2022-10-21T01:34:52.542Z,3.85
2022-10-21T01:36:04.893Z,3.82
2022-10-21T01:37:07.811Z,3.81
2022-10-21T01:38:20.107Z,3.80
2022-10-21T01:39:22.896Z,3.79
2022-10-21T01:40:34.718Z,3.77
2022-10-21T01:41:56.677Z,3.77
2022-10-21T01:43:03.966Z,3.75
2022-10-21T01:44:15.884Z,3.74
2022-10-21T01:45:19.027Z,3.73
2022-10-21T01:46:31.862Z,3.72
2022-10-21T01:47:37.594Z,3.71
2022-10-21T01:48:43.730Z,3.69
2022-10-21T01:49:53.679Z,3.67
2022-10-21T01:50:58.689Z,3.66
2022-10-21T01:52:03.940Z,3.65
2022-10-21T01:53:08.503Z,3.65
2022-10-21T01:54:16.000Z,3.64
2022-10-21T01:55:20.686Z,3.64
2022-10-21T01:56:24.184Z,3.64
2022-10-21T01:57:28.425Z,3.63
2022-10-21T01:58:34.144Z,3.62
2022-10-21T01:59:40.010Z,3.61
2022-10-21T02:00:43.802Z,3.60
2022-10-21T02:01:47.175Z,3.60
2022-10-21T02:02:50.134Z,3.60
2022-10-21T02:03:55.021Z,3.60
2022-10-21T02:05:01.060Z,3.58
2022-10-21T02:06:04.098Z,3.59
2022-10-21T02:07:07.295Z,3.58
2022-10-21T02:08:10.379Z,3.58
2022-10-21T02:09:13.311Z,3.57
2022-10-21T02:10:17.663Z,3.57
2022-10-21T02:11:20.469Z,3.57
2022-10-21T02:12:24.562Z,3.57
2022-10-21T02:13:32.482Z,3.57
2022-10-21T02:14:37.302Z,3.56
2022-10-21T02:15:41.401Z,3.57
2022-10-21T02:16:49.314Z,3.57
2022-10-21T02:17:55.212Z,3.58
2022-10-21T02:18:59.661Z,3.58
2022-10-21T02:20:03.824Z,3.58
2022-10-21T02:21:10.366Z,3.57
2022-10-21T02:22:14.921Z,3.58
2022-10-21T02:23:19.318Z,3.58
2022-10-21T02:24:26.980Z,3.59
2022-10-21T02:25:33.140Z,3.59
2022-10-21T02:26:36.095Z,3.59
2022-10-21T02:27:38.965Z,3.60
2022-10-21T02:28:41.873Z,3.61
2022-10-21T02:29:46.136Z,3.61
2022-10-21T02:32:10.003Z,3.61
2022-10-21T02:33:23.682Z,3.62
2022-10-21T02:34:35.513Z,3.62
2022-10-21T02:35:46.238Z,3.62
2022-10-21T02:37:04.069Z,3.62
2022-10-21T02:38:22.457Z,3.63
2022-10-21T02:39:29.676Z,3.62
2022-10-21T02:40:47.296Z,3.62
2022-10-21T02:41:51.197Z,3.62
2022-10-21T02:42:57.023Z,3.62
2022-10-21T02:44:01.573Z,3.62
2022-10-21T02:45:04.988Z,3.62
2022-10-21T02:46:09.759Z,3.62
2022-10-21T02:47:12.768Z,3.61
2022-10-21T02:48:16.019Z,3.61
2022-10-21T02:49:19.089Z,3.60
2022-10-21T02:50:21.978Z,3.60
2022-10-21T02:51:24.793Z,3.59
2022-10-21T02:52:27.813Z,3.59
2022-10-21T02:53:31.320Z,3.59
2022-10-21T02:54:34.134Z,3.59
2022-10-21T02:55:37.014Z,3.58
2022-10-21T02:56:39.829Z,3.57
2022-10-21T02:57:42.793Z,3.56
2022-10-21T02:58:45.727Z,3.56
2022-10-21T02:59:48.807Z,3.56
2022-10-21T03:00:51.838Z,3.56
2022-10-21T03:01:54.727Z,3.56
2022-10-21T03:02:57.583Z,3.55
2022-10-21T03:04:00.386Z,3.54
2022-10-21T03:05:03.392Z,3.53
2022-10-21T03:06:06.373Z,3.53
2022-10-21T03:07:09.237Z,3.52
2022-10-21T03:08:12.168Z,3.51
2022-10-21T03:09:14.954Z,3.51
2022-10-21T03:10:17.812Z,3.51
2022-10-21T03:11:20.746Z,3.50
2022-10-21T03:12:23.556Z,3.50
2022-10-21T03:13:26.380Z,3.49
2022-10-21T03:14:29.217Z,3.49
2022-10-21T03:15:32.175Z,3.48
2022-10-21T03:16:35.061Z,3.47
2022-10-21T03:17:38.122Z,3.46
2022-10-21T03:18:41.467Z,3.46
2022-10-21T03:19:44.362Z,3.46
2022-10-21T03:20:50.706Z,3.46
2022-10-21T03:21:53.882Z,3.46
2022-10-21T03:22:56.670Z,3.45
2022-10-21T03:23:59.676Z,3.45
2022-10-21T03:25:02.512Z,3.45
2022-10-21T03:26:05.401Z,3.45
2022-10-21T03:27:08.755Z,3.43
2022-10-21T03:28:11.637Z,3.44
2022-10-21T03:29:14.761Z,3.45
2022-10-21T03:30:17.954Z,3.45
2022-10-21T03:31:20.922Z,3.46
2022-10-21T03:32:23.793Z,3.46
2022-10-21T03:33:26.912Z,3.46
2022-10-21T03:34:29.698Z,3.46
2022-10-21T03:35:32.535Z,3.46
2022-10-21T03:36:35.335Z,3.47
2022-10-21T03:37:38.375Z,3.48
2022-10-21T03:38:41.173Z,3.47
2022-10-21T03:39:44.148Z,3.47
2022-10-21T03:40:47.005Z,3.47
2022-10-21T03:41:50.028Z,3.48
2022-10-21T03:42:52.899Z,3.49
2022-10-21T03:43:55.726Z,3.50
2022-10-21T03:44:58.537Z,3.50
2022-10-21T03:46:01.612Z,3.52
2022-10-21T03:47:04.510Z,3.53
2022-10-21T03:48:07.741Z,3.55
2022-10-21T03:49:18.409Z,3.57
2022-10-21T03:50:26.673Z,3.58
2022-10-21T03:51:29.878Z,3.60
2022-10-21T03:52:32.858Z,3.60
2022-10-21T03:53:43.343Z,3.61
2022-10-21T03:54:46.592Z,3.61
2022-10-21T03:55:54.259Z,3.62
2022-10-21T03:56:59.600Z,3.62
2022-10-21T03:58:02.479Z,3.63
2022-10-21T03:59:05.441Z,3.64
2022-10-21T04:00:08.893Z,3.64
2022-10-21T04:01:17.916Z,3.65
2022-10-21T04:02:20.789Z,3.65
2022-10-21T04:03:23.598Z,3.65
2022-10-21T04:04:26.698Z,3.66
2022-10-21T04:05:29.583Z,3.68
2022-10-21T04:06:32.857Z,3.68
2022-10-21T04:07:35.686Z,3.70
2022-10-21T04:08:38.713Z,3.71
2022-10-21T04:09:41.746Z,3.72
2022-10-21T04:10:45.557Z,3.73
2022-10-21T04:11:48.417Z,3.75
2022-10-21T04:12:51.219Z,3.76
2022-10-21T04:13:54.017Z,3.76
2022-10-21T04:14:56.969Z,3.77
2022-10-21T04:16:01.223Z,3.79
2022-10-21T04:17:07.528Z,3.80
2022-10-21T04:18:10.778Z,3.81
2022-10-21T04:19:18.032Z,3.82
2022-10-21T04:20:21.106Z,3.82
2022-10-21T04:22:31.896Z,3.83
2022-10-21T04:23:35.042Z,3.84
2022-10-21T04:24:37.994Z,3.84
2022-10-21T04:25:43.667Z,3.86
2022-10-21T04:26:46.479Z,3.85
2022-10-21T04:27:49.359Z,3.84
2022-10-21T04:28:52.353Z,3.85
2022-10-21T04:29:55.252Z,3.84
2022-10-21T04:30:58.282Z,3.85
2022-10-21T04:32:01.091Z,3.85
2022-10-21T04:33:04.264Z,3.84
2022-10-21T04:34:07.108Z,3.84
2022-10-21T04:35:10.144Z,3.83
2022-10-21T04:36:13.213Z,3.84
2022-10-21T04:37:16.226Z,3.83
2022-10-21T04:38:19.313Z,3.83
2022-10-21T04:39:22.133Z,3.83
2022-10-21T04:40:25.117Z,3.82
2022-10-21T04:41:28.346Z,3.83
2022-10-21T04:42:31.339Z,3.82
2022-10-21T04:43:34.311Z,3.82
2022-10-21T04:44:37.903Z,3.82
2022-10-21T04:45:40.816Z,3.82
2022-10-21T04:46:43.735Z,3.81
2022-10-21T04:47:46.659Z,3.80
2022-10-21T04:48:49.536Z,3.79
2022-10-21T04:49:52.428Z,3.80
2022-10-21T04:50:55.779Z,3.81
2022-10-21T04:51:58.936Z,3.81
2022-10-21T04:53:01.699Z,3.81
2022-10-21T04:54:04.776Z,3.80
2022-10-21T04:55:08.113Z,3.78
2022-10-21T04:56:11.500Z,3.77
2022-10-21T04:57:14.409Z,3.76
2022-10-21T04:58:20.934Z,3.75
2022-10-21T04:59:25.483Z,3.73
2022-10-21T05:00:28.325Z,3.72
2022-10-21T05:01:31.482Z,3.73
2022-10-21T05:02:34.637Z,3.73
2022-10-21T05:03:37.759Z,3.73
2022-10-21T05:04:40.614Z,3.72
2022-10-21T05:05:43.455Z,3.71
2022-10-21T05:06:46.335Z,3.71
2022-10-21T05:07:49.747Z,3.70
2022-10-21T05:08:52.809Z,3.70
2022-10-21T05:09:55.617Z,3.70
2022-10-21T05:11:00.343Z,3.69
2022-10-21T05:12:03.576Z,3.68
2022-10-21T05:13:06.535Z,3.66
2022-10-21T05:14:09.378Z,3.65
2022-10-21T05:15:14.078Z,3.65
2022-10-21T05:16:17.277Z,3.65
2022-10-21T05:17:20.087Z,3.64
2022-10-21T05:18:23.020Z,3.63
2022-10-21T05:19:30.364Z,3.62
2022-10-21T05:20:34.143Z,3.62
2022-10-21T05:22:44.671Z,3.62
2022-10-21T05:23:47.718Z,3.63
2022-10-21T05:24:50.646Z,3.63
2022-10-21T05:25:53.572Z,3.63
2022-10-21T05:26:56.449Z,3.63
2022-10-21T05:27:59.261Z,3.63
2022-10-21T05:29:02.429Z,3.62
2022-10-21T05:30:05.610Z,3.60
2022-10-21T05:31:08.422Z,3.60
2022-10-21T05:32:11.183Z,3.61
2022-10-21T05:33:14.101Z,3.61
2022-10-21T05:34:17.230Z,3.61
2022-10-21T05:35:20.113Z,3.62
2022-10-21T05:36:24.121Z,3.62
2022-10-21T05:37:27.273Z,3.62
2022-10-21T05:38:30.252Z,3.62
2022-10-21T05:39:33.239Z,3.62
2022-10-21T05:40:36.146Z,3.62
2022-10-21T05:41:41.033Z,3.63
2022-10-21T05:42:45.929Z,3.62
2022-10-21T05:43:48.778Z,3.61
2022-10-21T05:44:51.749Z,3.62
2022-10-21T05:45:54.686Z,3.62
2022-10-21T05:46:57.608Z,3.62
2022-10-21T05:48:00.414Z,3.64
2022-10-21T05:49:03.919Z,3.65
2022-10-21T05:50:07.597Z,3.65
2022-10-21T05:51:10.651Z,3.65
2022-10-21T05:52:13.462Z,3.65
2022-10-21T05:53:16.805Z,3.65
2022-10-21T05:54:19.764Z,3.66
2022-10-21T05:55:22.761Z,3.67
2022-10-21T05:56:25.552Z,3.68
2022-10-21T05:57:28.511Z,3.70
2022-10-21T05:58:32.601Z,3.71
2022-10-21T05:59:35.417Z,3.71
2022-10-21T06:00:38.381Z,3.73
2022-10-21T06:01:41.260Z,3.74
2022-10-21T06:02:44.185Z,3.75
2022-10-21T06:03:47.117Z,3.77
2022-10-21T06:04:50.058Z,3.78
2022-10-21T06:05:53.078Z,3.80
2022-10-21T06:08:04.025Z,3.80
2022-10-21T06:09:06.968Z,3.81
2022-10-21T06:10:10.056Z,3.83
2022-10-21T06:11:14.527Z,3.85
2022-10-21T06:12:17.428Z,3.87
2022-10-21T06:13:20.199Z,3.88
2022-10-21T06:14:23.016Z,3.88
2022-10-21T06:15:25.841Z,3.90
2022-10-21T06:16:28.775Z,3.90
2022-10-21T06:17:31.904Z,3.90
2022-10-21T06:18:35.110Z,3.92
2022-10-21T06:19:38.000Z,3.94
2022-10-21T06:20:40.889Z,3.94
2022-10-21T06:21:43.768Z,3.96
2022-10-21T06:22:46.812Z,3.97
2022-10-21T06:23:52.673Z,3.99
2022-10-21T06:24:55.876Z,4.00
2022-10-21T06:26:00.063Z,4.04
2022-10-21T06:27:03.325Z,4.06
2022-10-21T06:28:06.253Z,4.08
2022-10-21T06:29:09.128Z,4.09
2022-10-21T06:30:12.017Z,4.09
2022-10-21T06:31:16.395Z,4.10
2022-10-21T06:32:19.367Z,4.11
2022-10-21T06:33:26.180Z,4.12
2022-10-21T06:34:30.357Z,4.13
2022-10-21T06:35:33.158Z,4.14
2022-10-21T06:36:38.223Z,4.15
2022-10-21T06:37:41.369Z,4.16
2022-10-21T06:38:44.511Z,4.16
2022-10-21T06:39:47.473Z,4.17
2022-10-21T06:40:50.253Z,4.18
2022-10-21T06:41:53.347Z,4.18
2022-10-21T06:43:16.301Z,4.18
2022-10-21T06:44:19.435Z,4.18
2022-10-21T06:45:22.291Z,4.16
2022-10-21T06:46:25.258Z,4.18
2022-10-21T06:47:28.103Z,4.20
2022-10-21T06:48:31.286Z,4.22
2022-10-21T06:49:34.575Z,4.24
2022-10-21T06:50:37.934Z,4.26
2022-10-21T06:51:40.768Z,4.28
2022-10-21T06:52:43.792Z,4.29
2022-10-21T06:53:47.862Z,4.31
2022-10-21T06:54:50.833Z,4.33
2022-10-21T06:56:20.157Z,4.35
2022-10-21T06:57:23.393Z,4.36
2022-10-21T06:58:26.357Z,4.37
2022-10-21T06:59:30.381Z,4.39
2022-10-21T07:00:33.221Z,4.40
2022-10-21T07:01:48.387Z,4.41
2022-10-21T07:02:59.794Z,4.42
2022-10-21T07:04:06.839Z,4.42
2022-10-21T07:05:10.327Z,4.43
2022-10-21T07:06:13.798Z,4.42
2022-10-21T07:07:16.630Z,4.41
2022-10-21T07:08:22.361Z,4.41
2022-10-21T07:09:32.859Z,4.42
2022-10-21T07:10:35.853Z,4.43
2022-10-21T07:11:38.694Z,4.43
2022-10-21T07:12:41.588Z,4.43
2022-10-21T07:13:44.564Z,4.44
2022-10-21T07:14:47.428Z,4.46
2022-10-21T07:16:00.137Z,4.48
2022-10-21T07:17:03.357Z,4.52
2022-10-21T07:18:06.173Z,4.55
2022-10-21T07:19:10.565Z,4.56
2022-10-21T07:20:13.474Z,4.58
2022-10-21T07:21:18.467Z,4.59
2022-10-21T07:22:21.331Z,4.60
2022-10-21T07:23:24.244Z,4.61
2022-10-21T07:26:26.388Z,4.61
2022-10-21T07:27:49.833Z,4.68
2022-10-21T07:28:54.792Z,4.70
2022-10-21T07:29:57.668Z,4.72
2022-10-21T07:31:00.438Z,4.72
2022-10-21T07:32:03.257Z,4.73
2022-10-21T07:33:06.204Z,4.74
2022-10-21T07:34:09.380Z,4.76
2022-10-21T07:35:12.307Z,4.75
2022-10-21T07:36:19.021Z,4.76
2022-10-21T07:37:22.092Z,4.76
2022-10-21T07:38:25.157Z,4.74
2022-10-21T07:39:27.987Z,4.74
2022-10-21T07:40:31.093Z,4.74
2022-10-21T07:41:38.669Z,4.75
2022-10-21T07:42:41.818Z,4.76
2022-10-21T07:43:44.969Z,4.77
2022-10-21T07:44:49.542Z,4.78
2022-10-21T07:45:52.452Z,4.79
2022-10-21T07:46:55.819Z,4.81
2022-10-21T07:47:58.899Z,4.83
2022-10-21T07:49:01.872Z,4.83
2022-10-21T07:50:04.808Z,4.83
2022-10-21T07:51:11.943Z,4.82
2022-10-21T07:53:26.010Z,4.82
2022-10-21T07:54:29.093Z,4.83
2022-10-21T07:55:32.220Z,4.83
2022-10-21T07:56:36.533Z,4.83
2022-10-21T07:57:39.813Z,4.83
2022-10-21T07:58:43.084Z,4.83
2022-10-21T07:59:46.244Z,4.85
2022-10-21T08:00:49.130Z,4.86
2022-10-21T08:01:53.191Z,4.87
2022-10-21T08:02:57.368Z,4.88
2022-10-21T08:04:00.166Z,4.89
2022-10-21T08:05:03.400Z,4.90
2022-10-21T08:06:07.521Z,4.91
2022-10-21T08:07:13.165Z,4.93
2022-10-21T08:08:17.151Z,4.94
2022-10-21T08:09:20.008Z,4.95
2022-10-21T08:10:23.038Z,4.96
2022-10-21T08:11:27.226Z,4.98
2022-10-21T08:12:30.149Z,4.99
2022-10-21T08:13:33.486Z,5.01
2022-10-21T08:14:36.263Z,5.02
2022-10-21T08:15:49.883Z,5.03
2022-10-21T08:16:53.385Z,5.06
2022-10-21T08:17:56.463Z,5.08
2022-10-21T08:18:59.990Z,5.12
2022-10-21T08:20:03.500Z,5.13
2022-10-21T08:21:06.511Z,5.16
2022-10-21T08:22:09.690Z,5.18
2022-10-21T08:23:13.307Z,5.20
2022-10-21T08:24:16.267Z,5.22
2022-10-21T08:25:19.306Z,5.23
2022-10-21T08:26:22.305Z,5.25
2022-10-21T08:27:25.087Z,5.26
2022-10-21T08:28:29.554Z,5.27
2022-10-21T08:29:34.312Z,5.30
2022-10-21T08:30:39.329Z,5.33
2022-10-21T08:31:42.292Z,5.36
2022-10-21T08:32:45.123Z,5.38
2022-10-21T08:33:48.757Z,5.40
2022-10-21T08:34:51.902Z,5.42
2022-10-21T08:35:54.786Z,5.44
2022-10-21T08:36:57.706Z,5.46
2022-10-21T08:38:00.723Z,5.49
2022-10-21T08:39:03.950Z,5.52
2022-10-21T08:40:07.377Z,5.55
2022-10-21T08:41:11.664Z,5.58
2022-10-21T08:42:16.455Z,5.61
2022-10-21T08:43:19.336Z,5.65
2022-10-21T08:44:37.910Z,5.67
2022-10-21T08:45:46.369Z,5.69
2022-10-21T08:47:04.644Z,5.71
2022-10-21T08:48:12.654Z,5.74
2022-10-21T08:49:15.756Z,5.77
2022-10-21T08:50:20.431Z,5.80
2022-10-21T08:51:27.194Z,5.83
2022-10-21T08:52:39.368Z,5.87
2022-10-21T08:53:46.867Z,5.91
2022-10-21T08:55:00.453Z,5.95
2022-10-21T08:56:09.797Z,5.99
2022-10-21T08:57:12.705Z,6.04
2022-10-21T08:58:18.314Z,6.07
2022-10-21T08:59:23.154Z,6.10
2022-10-21T09:00:32.877Z,6.12
2022-10-21T09:01:43.158Z,6.15
2022-10-21T09:02:54.958Z,6.18
2022-10-21T09:04:10.181Z,6.23
2022-10-21T09:05:19.682Z,6.26
2022-10-21T09:06:23.083Z,6.33
2022-10-21T09:07:32.200Z,6.36
2022-10-21T09:08:35.446Z,6.39
2022-10-21T09:09:47.179Z,6.42
2022-10-21T09:10:56.302Z,6.45
2022-10-21T09:12:08.078Z,6.48
2022-10-21T09:13:29.925Z,6.50
2022-10-21T09:14:51.718Z,6.54
2022-10-21T09:16:04.298Z,6.59
2022-10-21T09:17:18.458Z,6.64
2022-10-21T09:18:28.178Z,6.69
2022-10-21T09:19:37.400Z,6.75
2022-10-21T09:21:03.196Z,6.80
2022-10-21T09:22:33.581Z,6.85
2022-10-21T09:23:42.565Z,6.89
2022-10-21T09:24:52.545Z,6.92
2022-10-21T09:26:04.249Z,6.95
2022-10-21T09:27:09.927Z,6.96
2022-10-21T09:28:13.812Z,6.97
2022-10-21T09:29:20.687Z,6.99
2022-10-21T09:30:24.075Z,7.02
2022-10-21T09:31:28.552Z,7.05
2022-10-21T09:32:41.915Z,7.06
2022-10-21T09:33:50.095Z,7.09
2022-10-21T09:34:52.985Z,7.11
2022-10-21T09:36:08.222Z,7.13
2022-10-21T09:37:35.505Z,7.17
2022-10-21T09:38:38.667Z,7.20
2022-10-21T09:39:50.141Z,7.22
2022-10-21T09:40:59.401Z,7.21
2022-10-21T09:42:07.325Z,7.20
2022-10-21T09:43:22.546Z,7.20
2022-10-21T09:44:25.430Z,7.20
2022-10-21T09:45:32.571Z,7.18
2022-10-21T09:46:35.549Z,7.16
2022-10-21T09:47:38.421Z,7.14
2022-10-21T09:49:08.267Z,7.13
2022-10-21T09:50:13.073Z,7.11
2022-10-21T09:51:18.585Z,7.10
2022-10-21T09:52:23.124Z,7.12
2022-10-21T09:53:34.462Z,7.12
2022-10-21T09:54:39.602Z,7.13
2022-10-21T09:55:44.495Z,7.13
2022-10-21T09:56:54.766Z,7.14
2022-10-21T09:57:59.061Z,7.15
2022-10-21T09:59:10.062Z,7.17
2022-10-21T10:00:14.396Z,7.19
2022-10-21T10:01:20.798Z,7.21
2022-10-21T10:02:45.183Z,7.23
2022-10-21T10:03:49.809Z,7.27
2022-10-21T10:04:52.777Z,7.30
2022-10-21T10:05:55.692Z,7.34
2022-10-21T10:07:02.460Z,7.38
2022-10-21T10:08:25.711Z,7.42
2022-10-21T10:09:32.746Z,7.48
2022-10-21T10:10:35.508Z,7.50
2022-10-21T10:11:51.619Z,7.53
2022-10-21T10:12:58.656Z,7.56
2022-10-21T10:14:21.600Z,7.58
2022-10-21T10:15:31.470Z,7.62
2022-10-21T10:16:34.729Z,7.63
2022-10-21T10:17:39.825Z,7.65
2022-10-21T10:18:43.530Z,7.68
2022-10-21T10:20:05.538Z,7.72
2022-10-21T10:21:10.725Z,7.77
2022-10-21T10:22:14.801Z,7.79
2022-10-21T10:23:18.922Z,7.80
2022-10-21T10:24:21.982Z,7.79
2022-10-21T10:25:28.619Z,7.79
2022-10-21T10:26:33.357Z,7.78
2022-10-21T10:27:36.612Z,7.78
2022-10-21T10:29:42.982Z,7.82
2022-10-21T10:30:56.107Z,7.84
2022-10-21T10:32:01.457Z,7.88
2022-10-21T10:33:14.571Z,7.92
2022-10-21T10:34:27.361Z,7.95
2022-10-21T10:35:34.157Z,7.97
2022-10-21T10:36:38.756Z,8.01
2022-10-21T10:37:46.410Z,8.04
2022-10-21T10:38:53.853Z,8.08
2022-10-21T10:39:58.658Z,8.11
2022-10-21T10:41:04.395Z,8.13
2022-10-21T10:42:07.895Z,8.15
2022-10-21T10:43:43.312Z,8.16
2022-10-21T10:44:46.520Z,8.20
2022-10-21T10:45:52.226Z,8.23
2022-10-21T10:46:56.908Z,8.25
2022-10-21T10:48:04.012Z,8.26
2022-10-21T10:49:21.320Z,8.27
2022-10-21T10:50:42.757Z,8.29
2022-10-21T10:51:47.154Z,8.31
2022-10-21T10:53:09.317Z,8.32
2022-10-21T10:54:23.861Z,8.34
2022-10-21T10:55:27.929Z,8.35
2022-10-21T10:56:37.032Z,8.37
2022-10-21T10:57:45.870Z,8.39
2022-10-21T10:59:03.698Z,8.38
2022-10-21T11:00:10.140Z,8.38
2022-10-21T11:01:17.591Z,8.39
2022-10-21T11:02:23.994Z,8.39
2022-10-21T11:03:29.831Z,8.42
2022-10-21T11:04:35.476Z,8.44
2022-10-21T11:05:46.047Z,8.43
2022-10-21T11:06:52.471Z,8.45
2022-10-21T11:07:57.515Z,8.46
2022-10-21T11:09:01.914Z,8.48
2022-10-21T11:10:08.790Z,8.49
2022-10-21T11:11:34.704Z,8.49
2022-10-21T11:12:38.379Z,8.48
2022-10-21T11:13:42.229Z,8.48
2022-10-21T11:14:48.453Z,8.48
2022-10-21T11:15:54.359Z,8.49
2022-10-21T11:17:09.617Z,8.50
2022-10-21T11:18:30.176Z,8.52
2022-10-21T11:19:32.953Z,8.54
2022-10-21T11:20:53.001Z,8.54
2022-10-21T11:22:05.788Z,8.54
2022-10-21T11:23:18.288Z,8.51
2022-10-21T11:24:21.039Z,8.49
2022-10-21T11:25:30.457Z,8.48
2022-10-21T11:26:42.393Z,8.47
2022-10-21T11:27:45.159Z,8.47
2022-10-21T11:28:52.333Z,8.47
2022-10-21T11:30:01.191Z,8.46
2022-10-21T11:31:43.727Z,8.45
2022-10-21T11:33:07.367Z,8.45
2022-10-21T11:34:30.699Z,8.47
2022-10-21T11:35:36.210Z,8.47
2022-10-21T11:36:57.570Z,8.46
2022-10-21T11:38:14.446Z,8.45
2022-10-21T11:39:35.942Z,8.45
2022-10-21T11:40:46.515Z,8.44
2022-10-21T11:41:56.754Z,8.44
2022-10-21T11:43:05.725Z,8.44
2022-10-21T11:44:11.426Z,8.44
2022-10-21T11:45:20.808Z,8.42
2022-10-21T11:46:39.215Z,8.43
2022-10-21T11:47:44.838Z,8.44
2022-10-21T11:48:53.851Z,8.43
2022-10-21T11:50:03.751Z,8.42
2022-10-21T11:51:09.533Z,8.41
2022-10-21T11:52:19.544Z,8.38
2022-10-21T11:53:41.308Z,8.36
2022-10-21T11:55:11.055Z,8.35
2022-10-21T11:56:17.366Z,8.34
2022-10-21T11:57:27.169Z,8.33
2022-10-21T11:58:30.206Z,8.31
2022-10-21T11:59:48.194Z,8.29
2022-10-21T12:01:07.477Z,8.26
2022-10-21T12:02:25.751Z,8.25
2022-10-21T12:03:51.737Z,8.23
2022-10-21T12:05:06.859Z,8.21
2022-10-21T12:06:26.486Z,8.19
2022-10-21T12:07:32.664Z,8.18
2022-10-21T12:08:54.113Z,8.16
2022-10-21T12:10:04.218Z,8.13
2022-10-21T12:11:14.363Z,8.12
2022-10-21T12:12:19.309Z,8.12
2022-10-21T12:13:41.702Z,8.11
2022-10-21T12:14:54.615Z,8.11
2022-10-21T12:16:02.296Z,8.11
2022-10-21T12:17:07.112Z,8.11
2022-10-21T12:18:30.139Z,8.11
2022-10-21T12:19:33.142Z,8.10
2022-10-21T12:20:36.052Z,8.11
2022-10-21T12:21:40.011Z,8.11
2022-10-21T12:22:43.158Z,8.12
2022-10-21T12:23:50.757Z,8.12
2022-10-21T12:24:53.687Z,8.10
2022-10-21T12:26:07.070Z,8.10
2022-10-21T12:27:17.219Z,8.09
2022-10-21T12:28:28.673Z,8.07
2022-10-21T12:29:54.778Z,8.06
2022-10-21T12:31:00.709Z,8.06
2022-10-21T12:32:14.709Z,8.06
2022-10-21T12:33:23.785Z,8.05
2022-10-21T12:34:26.981Z,8.04
2022-10-21T12:36:49.562Z,7.97
2022-10-21T12:37:53.015Z,7.95
2022-10-21T12:38:56.827Z,7.92
2022-10-21T12:40:17.513Z,7.91
2022-10-21T12:41:22.544Z,7.88
2022-10-21T12:42:28.904Z,7.87
2022-10-21T12:43:31.846Z,7.86
2022-10-21T12:44:37.348Z,7.84
2022-10-21T12:45:40.323Z,7.81
2022-10-21T12:46:45.038Z,7.79
2022-10-21T12:47:48.309Z,7.77
2022-10-21T12:48:52.490Z,7.76
2022-10-21T12:50:07.685Z,7.76
2022-10-21T12:51:19.515Z,7.74
2022-10-21T12:52:23.780Z,7.73
2022-10-21T12:53:35.696Z,7.72
2022-10-21T12:54:49.263Z,7.72
2022-10-21T12:55:54.934Z,7.73
2022-10-21T12:56:59.741Z,7.73
2022-10-21T12:58:05.426Z,7.73
2022-10-21T12:59:27.253Z,7.75
2022-10-21T13:00:30.142Z,7.74
2022-10-21T13:01:43.893Z,7.75
2022-10-21T13:03:16.356Z,7.75
2022-10-21T13:04:39.491Z,7.74
2022-10-21T13:05:42.316Z,7.74
2022-10-21T13:06:55.086Z,7.74
2022-10-21T13:08:17.073Z,7.71
2022-10-21T13:09:39.152Z,7.70
2022-10-21T13:11:01.993Z,7.69
2022-10-21T13:12:04.943Z,7.70
2022-10-21T13:13:26.469Z,7.70
2022-10-21T13:14:35.263Z,7.74
2022-10-21T13:15:45.009Z,7.78
2022-10-21T13:16:48.038Z,7.81
2022-10-21T13:17:54.957Z,7.82
2022-10-21T13:18:59.856Z,7.83
2022-10-21T13:20:15.204Z,7.85
2022-10-21T13:21:38.232Z,7.86
2022-10-21T13:22:42.779Z,7.88
2022-10-21T13:23:45.701Z,7.90
2022-10-21T13:24:49.788Z,7.92
2022-10-21T13:26:06.922Z,7.94
2022-10-21T13:27:28.076Z,7.96
2022-10-21T13:28:31.437Z,8.01
2022-10-21T13:29:42.663Z,8.03
2022-10-21T13:30:48.329Z,8.06
2022-10-21T13:32:10.055Z,8.06
2022-10-21T13:33:18.835Z,8.07
2022-10-21T13:34:26.262Z,8.08
2022-10-21T13:35:41.627Z,8.09
2022-10-21T13:36:44.545Z,8.11
2022-10-21T13:38:10.452Z,8.12
2022-10-21T13:39:22.952Z,8.14
2022-10-21T13:40:29.004Z,8.16
2022-10-21T13:41:32.657Z,8.17
2022-10-21T13:42:38.756Z,8.17
2022-10-21T13:43:59.015Z,8.17
2022-10-21T13:45:04.274Z,8.16
2022-10-21T13:46:26.875Z,8.15
2022-10-21T13:47:31.356Z,8.15
2022-10-21T13:48:38.710Z,8.15
2022-10-21T13:49:43.162Z,8.15
2022-10-21T13:50:50.520Z,8.16
2022-10-21T13:51:53.986Z,8.16
2022-10-21T13:52:56.933Z,8.16
2022-10-21T13:54:02.904Z,8.17
2022-10-21T13:55:06.196Z,8.19
2022-10-21T13:56:17.946Z,8.19
2022-10-21T13:57:20.784Z,8.20
2022-10-21T13:58:24.509Z,8.20
2022-10-21T13:59:29.978Z,8.21
2022-10-21T14:00:33.006Z,8.21
2022-10-21T14:01:49.646Z,8.21
2022-10-21T14:02:55.200Z,8.22
2022-10-21T14:04:17.498Z,8.22
2022-10-21T14:05:35.834Z,8.22
2022-10-21T14:06:42.979Z,8.21
2022-10-21T14:07:46.193Z,8.20
2022-10-21T14:08:49.842Z,8.19
2022-10-21T14:09:55.108Z,8.19
2022-10-21T14:10:59.209Z,8.19
2022-10-21T14:12:07.107Z,8.19
2022-10-21T14:13:11.525Z,8.19
2022-10-21T14:14:16.122Z,8.20
2022-10-21T14:15:21.862Z,8.21
2022-10-21T14:16:30.920Z,8.22
2022-10-21T14:17:34.816Z,8.23
2022-10-21T14:18:40.699Z,8.25
2022-10-21T14:19:46.683Z,8.26
2022-10-21T14:20:49.615Z,8.26
2022-10-21T14:21:54.002Z,8.26
2022-10-21T14:22:57.094Z,8.26
2022-10-21T14:24:00.035Z,8.27
2022-10-21T14:25:03.245Z,8.27
2022-10-21T14:26:07.874Z,8.28
2022-10-21T14:27:21.026Z,8.28
2022-10-21T14:28:24.042Z,8.29
2022-10-21T14:29:28.461Z,8.29
2022-10-21T14:30:33.071Z,8.29
2022-10-21T14:31:35.946Z,8.29
2022-10-21T14:32:39.299Z,8.29
2022-10-21T14:33:45.293Z,8.29
2022-10-21T14:35:00.309Z,8.27
2022-10-21T14:36:04.514Z,8.27
2022-10-21T14:37:11.901Z,8.27
2022-10-21T14:38:26.190Z,8.26
2022-10-21T14:39:29.726Z,8.27
2022-10-21T14:40:34.295Z,8.27
2022-10-21T14:41:39.658Z,8.28
2022-10-21T14:42:42.557Z,8.27
2022-10-21T14:43:46.840Z,8.27
2022-10-21T14:44:51.662Z,8.26
2022-10-21T14:45:55.188Z,8.26
2022-10-21T14:46:58.503Z,8.25
2022-10-21T14:48:09.379Z,8.24
2022-10-21T14:49:23.501Z,8.24
2022-10-21T14:50:26.760Z,8.25
2022-10-21T14:51:35.395Z,8.24
2022-10-21T14:52:42.597Z,8.24
2022-10-21T14:53:51.418Z,8.25
2022-10-21T14:54:55.824Z,8.26
2022-10-21T14:56:00.114Z,8.26
2022-10-21T14:57:04.526Z,8.26
2022-10-21T14:58:10.511Z,8.26